sensor_id;sensor_type;location;lat;lon;timestamp;pressure;altitude;pressure_sealevel;temperature;humidity
62510;BME280;48558;48.242;11.654;2023-04-07T00:03:38;96255.59;;;1.63;100.00
62510;BME280;48558;48.242;11.654;2023-04-07T00:07:52;96259.16;;;1.60;100.00
62510;BME280;48558;48.242;11.654;2023-04-07T00:12:07;96251.91;;;1.47;100.00
62510;BME280;48558;48.242;11.654;2023-04-07T00:16:20;96237.94;;;1.41;100.00
62510;BME280;48558;48.242;11.654;2023-04-07T00:20:32;96239.44;;;1.45;100.00
62510;BME280;48558;48.242;11.654;2023-04-07T00:24:45;96243.59;;;1.57;100.00
62510;BME280;48558;48.242;11.654;2023-04-07T00:28:58;96238.59;;;1.56;100.00
62510;BME280;48558;48.242;11.654;2023-04-07T00:33:10;96223.75;;;1.60;100.00
62510;BME280;48558;48.242;11.654;2023-04-07T00:37:33;96245.28;;;1.81;100.00
62510;BME280;48558;48.242;11.654;2023-04-07T00:41:46;96243.19;;;1.92;100.00
62510;BME280;48558;48.242;11.654;2023-04-07T00:45:59;96235.41;;;1.94;100.00
62510;BME280;48558;48.242;11.654;2023-04-07T00:50:11;96222.50;;;1.98;100.00
62510;BME280;48558;48.242;11.654;2023-04-07T00:54:24;96220.56;;;1.99;100.00
62510;BME280;48558;48.242;11.654;2023-04-07T00:58:44;96221.59;;;2.08;100.00
62510;BME280;48558;48.242;11.654;2023-04-07T01:03:00;96220.94;;;2.01;100.00
62510;BME280;48558;48.242;11.654;2023-04-07T01:07:22;96230.50;;;1.82;100.00
62510;BME280;48558;48.242;11.654;2023-04-07T01:11:47;96229.28;;;1.83;100.00
62510;BME280;48558;48.242;11.654;2023-04-07T01:20:50;96216.03;;;1.55;100.00
62510;BME280;48558;48.242;11.654;2023-04-07T01:25:21;96212.59;;;1.48;100.00
62510;BME280;48558;48.242;11.654;2023-04-07T01:29:51;96220.09;;;1.40;100.00
62510;BME280;48558;48.242;11.654;2023-04-07T01:34:05;96214.66;;;1.36;100.00
62510;BME280;48558;48.242;11.654;2023-04-07T01:38:22;96219.25;;;1.43;100.00
62510;BME280;48558;48.242;11.654;2023-04-07T01:42:37;96222.34;;;1.79;100.00
62510;BME280;48558;48.242;11.654;2023-04-07T01:46:51;96209.94;;;2.08;100.00
62510;BME280;48558;48.242;11.654;2023-04-07T01:51:05;96212.41;;;2.52;100.00
62510;BME280;48558;48.242;11.654;2023-04-07T01:55:19;96207.09;;;3.15;100.00
62510;BME280;48558;48.242;11.654;2023-04-07T01:59:32;96210.03;;;3.47;100.00
62510;BME280;48558;48.242;11.654;2023-04-07T02:04:32;96206.84;;;3.72;100.00
62510;BME280;48558;48.242;11.654;2023-04-07T02:08:53;96205.03;;;3.65;100.00
62510;BME280;48558;48.242;11.654;2023-04-07T02:13:09;96204.22;;;3.45;100.00
62510;BME280;48558;48.242;11.654;2023-04-07T02:17:26;96204.44;;;3.34;100.00
62510;BME280;48558;48.242;11.654;2023-04-07T02:21:40;96203.47;;;3.21;100.00
62510;BME280;48558;48.242;11.654;2023-04-07T02:25:55;96191.91;;;3.37;100.00
62510;BME280;48558;48.242;11.654;2023-04-07T02:30:09;96199.50;;;3.26;100.00
62510;BME280;48558;48.242;11.654;2023-04-07T02:34:22;96186.53;;;3.10;100.00
62510;BME280;48558;48.242;11.654;2023-04-07T02:38:34;96190.56;;;3.02;100.00
62510;BME280;48558;48.242;11.654;2023-04-07T02:42:47;96187.88;;;2.99;100.00
62510;BME280;48558;48.242;11.654;2023-04-07T02:46:59;96189.00;;;3.01;100.00
62510;BME280;48558;48.242;11.654;2023-04-07T02:51:12;96188.50;;;2.86;100.00
62510;BME280;48558;48.242;11.654;2023-04-07T02:55:25;96195.09;;;2.89;100.00
62510;BME280;48558;48.242;11.654;2023-04-07T02:59:37;96183.13;;;3.26;100.00
62510;BME280;48558;48.242;11.654;2023-04-07T03:03:50;96186.66;;;3.46;100.00
62510;BME280;48558;48.242;11.654;2023-04-07T03:08:08;96187.53;;;3.82;100.00
62510;BME280;48558;48.242;11.654;2023-04-07T03:12:23;96183.22;;;4.01;100.00
62510;BME280;48558;48.242;11.654;2023-04-07T03:16:35;96168.50;;;4.30;100.00
62510;BME280;48558;48.242;11.654;2023-04-07T03:20:48;96182.72;;;4.58;100.00
62510;BME280;48558;48.242;11.654;2023-04-07T03:25:00;96165.47;;;4.61;100.00
62510;BME280;48558;48.242;11.654;2023-04-07T03:29:13;96172.72;;;4.67;100.00
62510;BME280;48558;48.242;11.654;2023-04-07T03:33:25;96179.22;;;4.73;100.00
62510;BME280;48558;48.242;11.654;2023-04-07T03:37:37;96173.16;;;4.82;100.00
62510;BME280;48558;48.242;11.654;2023-04-07T03:41:50;96163.41;;;4.81;100.00
62510;BME280;48558;48.242;11.654;2023-04-07T03:46:13;96171.97;;;4.83;100.00
62510;BME280;48558;48.242;11.654;2023-04-07T03:50:25;96168.03;;;4.84;100.00
62510;BME280;48558;48.242;11.654;2023-04-07T03:54:46;96165.03;;;4.78;100.00
62510;BME280;48558;48.242;11.654;2023-04-07T03:58:58;96158.88;;;4.74;100.00
62510;BME280;48558;48.242;11.654;2023-04-07T04:03:11;96155.88;;;4.85;100.00
62510;BME280;48558;48.242;11.654;2023-04-07T04:07:24;96169.81;;;5.06;100.00
62510;BME280;48558;48.242;11.654;2023-04-07T04:11:37;96145.28;;;4.87;100.00
62510;BME280;48558;48.242;11.654;2023-04-07T04:15:49;96152.47;;;4.97;100.00
62510;BME280;48558;48.242;11.654;2023-04-07T04:20:02;96162.53;;;5.00;100.00
62510;BME280;48558;48.242;11.654;2023-04-07T04:24:15;96164.25;;;5.10;100.00
62510;BME280;48558;48.242;11.654;2023-04-07T04:28:28;96155.38;;;4.90;100.00
62510;BME280;48558;48.242;11.654;2023-04-07T04:32:41;96156.75;;;4.66;100.00
62510;BME280;48558;48.242;11.654;2023-04-07T04:36:53;96141.84;;;4.67;100.00
62510;BME280;48558;48.242;11.654;2023-04-07T04:41:06;96158.63;;;4.85;100.00
62510;BME280;48558;48.242;11.654;2023-04-07T04:45:18;96165.72;;;4.82;100.00
62510;BME280;48558;48.242;11.654;2023-04-07T04:49:31;96161.00;;;4.83;100.00
62510;BME280;48558;48.242;11.654;2023-04-07T04:53:53;96161.78;;;4.99;100.00
62510;BME280;48558;48.242;11.654;2023-04-07T04:58:06;96158.63;;;4.85;100.00
62510;BME280;48558;48.242;11.654;2023-04-07T05:02:18;96164.97;;;4.66;100.00
62510;BME280;48558;48.242;11.654;2023-04-07T05:06:32;96147.34;;;4.67;100.00
62510;BME280;48558;48.242;11.654;2023-04-07T05:10:45;96164.25;;;4.94;100.00
62510;BME280;48558;48.242;11.654;2023-04-07T05:15:03;96162.19;;;4.98;100.00
62510;BME280;48558;48.242;11.654;2023-04-07T05:19:16;96146.97;;;4.97;100.00
62510;BME280;48558;48.242;11.654;2023-04-07T05:23:29;96144.25;;;4.97;100.00
62510;BME280;48558;48.242;11.654;2023-04-07T05:27:41;96150.81;;;5.16;100.00
62510;BME280;48558;48.242;11.654;2023-04-07T05:31:54;96149.88;;;5.06;100.00
62510;BME280;48558;48.242;11.654;2023-04-07T05:36:08;96148.16;;;5.12;100.00
62510;BME280;48558;48.242;11.654;2023-04-07T05:40:20;96141.91;;;5.12;100.00
62510;BME280;48558;48.242;11.654;2023-04-07T05:44:33;96147.47;;;5.08;100.00
62510;BME280;48558;48.242;11.654;2023-04-07T05:48:46;96150.56;;;4.94;100.00
62510;BME280;48558;48.242;11.654;2023-04-07T05:52:58;96143.41;;;5.29;100.00
62510;BME280;48558;48.242;11.654;2023-04-07T05:57:11;96140.59;;;5.16;100.00
62510;BME280;48558;48.242;11.654;2023-04-07T06:01:23;96151.59;;;5.45;100.00
62510;BME280;48558;48.242;11.654;2023-04-07T06:05:38;96137.66;;;5.39;100.00
62510;BME280;48558;48.242;11.654;2023-04-07T06:10:03;96141.78;;;5.60;100.00
62510;BME280;48558;48.242;11.654;2023-04-07T06:14:16;96140.81;;;5.66;100.00
62510;BME280;48558;48.242;11.654;2023-04-07T06:18:29;96131.06;;;6.19;100.00
62510;BME280;48558;48.242;11.654;2023-04-07T06:22:41;96140.06;;;6.58;100.00
62510;BME280;48558;48.242;11.654;2023-04-07T06:26:55;96134.88;;;6.72;100.00
62510;BME280;48558;48.242;11.654;2023-04-07T06:31:08;96133.56;;;6.51;100.00
62510;BME280;48558;48.242;11.654;2023-04-07T06:35:20;96132.88;;;6.85;100.00
62510;BME280;48558;48.242;11.654;2023-04-07T06:39:33;96138.41;;;6.73;100.00
62510;BME280;48558;48.242;11.654;2023-04-07T06:43:47;96122.91;;;6.53;100.00
62510;BME280;48558;48.242;11.654;2023-04-07T06:48:01;96112.94;;;7.06;100.00
62510;BME280;48558;48.242;11.654;2023-04-07T06:52:13;96115.53;;;7.22;100.00
62510;BME280;48558;48.242;11.654;2023-04-07T06:56:26;96104.91;;;7.46;100.00
62510;BME280;48558;48.242;11.654;2023-04-07T07:00:39;96113.28;;;7.64;100.00
62510;BME280;48558;48.242;11.654;2023-04-07T07:04:51;96104.66;;;8.06;100.00
62510;BME280;48558;48.242;11.654;2023-04-07T07:09:04;96113.53;;;8.31;100.00
62510;BME280;48558;48.242;11.654;2023-04-07T07:13:27;96112.88;;;8.58;100.00
62510;BME280;48558;48.242;11.654;2023-04-07T07:17:39;96105.91;;;8.35;100.00
62510;BME280;48558;48.242;11.654;2023-04-07T07:21:52;96109.25;;;8.70;100.00
62510;BME280;48558;48.242;11.654;2023-04-07T07:26:06;96106.84;;;8.90;100.00
62510;BME280;48558;48.242;11.654;2023-04-07T07:30:20;96110.63;;;8.75;100.00
62510;BME280;48558;48.242;11.654;2023-04-07T07:34:34;96113.69;;;8.77;100.00
62510;BME280;48558;48.242;11.654;2023-04-07T07:38:49;96122.63;;;9.08;100.00
62510;BME280;48558;48.242;11.654;2023-04-07T07:43:02;96119.31;;;9.40;100.00
62510;BME280;48558;48.242;11.654;2023-04-07T07:47:15;96120.06;;;9.59;100.00
62510;BME280;48558;48.242;11.654;2023-04-07T07:51:27;96103.00;;;9.96;100.00
62510;BME280;48558;48.242;11.654;2023-04-07T07:55:50;96107.59;;;9.99;100.00
62510;BME280;48558;48.242;11.654;2023-04-07T08:00:03;96111.59;;;9.98;100.00
62510;BME280;48558;48.242;11.654;2023-04-07T08:04:15;96116.66;;;9.91;100.00
62510;BME280;48558;48.242;11.654;2023-04-07T08:08:28;96124.50;;;9.47;100.00
62510;BME280;48558;48.242;11.654;2023-04-07T08:12:41;96117.88;;;9.99;100.00
62510;BME280;48558;48.242;11.654;2023-04-07T08:17:03;96118.47;;;10.21;100.00
62510;BME280;48558;48.242;11.654;2023-04-07T08:21:16;96122.78;;;10.04;100.00
62510;BME280;48558;48.242;11.654;2023-04-07T08:25:28;96118.78;;;10.14;100.00
62510;BME280;48558;48.242;11.654;2023-04-07T08:29:41;96117.75;;;9.75;100.00
62510;BME280;48558;48.242;11.654;2023-04-07T08:33:55;96119.06;;;10.67;98.79
62510;BME280;48558;48.242;11.654;2023-04-07T08:38:19;96106.97;;;10.88;99.76
62510;BME280;48558;48.242;11.654;2023-04-07T08:42:33;96099.88;;;10.63;92.14
62510;BME280;48558;48.242;11.654;2023-04-07T08:46:46;96106.03;;;11.38;93.06
62510;BME280;48558;48.242;11.654;2023-04-07T08:51:05;96103.00;;;12.04;85.03
62510;BME280;48558;48.242;11.654;2023-04-07T08:55:19;96112.19;;;12.39;81.57
62510;BME280;48558;48.242;11.654;2023-04-07T08:59:32;96113.88;;;11.78;80.54
62510;BME280;48558;48.242;11.654;2023-04-07T09:03:47;96105.59;;;11.54;81.91
62510;BME280;48558;48.242;11.654;2023-04-07T09:08:01;96107.59;;;12.21;76.42
62510;BME280;48558;48.242;11.654;2023-04-07T09:12:25;96109.41;;;11.95;75.26
62510;BME280;48558;48.242;11.654;2023-04-07T09:16:38;96106.09;;;12.20;70.64
62510;BME280;48558;48.242;11.654;2023-04-07T09:21:03;96095.00;;;12.06;88.45
62510;BME280;48558;48.242;11.654;2023-04-07T09:25:21;96091.84;;;11.22;80.68
62510;BME280;48558;48.242;11.654;2023-04-07T09:29:40;96091.66;;;12.31;72.65
62510;BME280;48558;48.242;11.654;2023-04-07T09:33:53;96093.09;;;11.97;73.41
62510;BME280;48558;48.242;11.654;2023-04-07T09:38:07;96098.56;;;10.82;78.83
62510;BME280;48558;48.242;11.654;2023-04-07T09:42:20;96093.19;;;10.79;79.64
62510;BME280;48558;48.242;11.654;2023-04-07T09:46:33;96084.44;;;11.66;76.69
62510;BME280;48558;48.242;11.654;2023-04-07T09:50:46;96080.72;;;12.91;69.70
62510;BME280;48558;48.242;11.654;2023-04-07T09:55:05;96083.69;;;13.43;67.68
62510;BME280;48558;48.242;11.654;2023-04-07T09:59:18;96080.03;;;14.60;72.92
62510;BME280;48558;48.242;11.654;2023-04-07T10:03:31;96074.28;;;14.69;56.55
62510;BME280;48558;48.242;11.654;2023-04-07T10:07:45;96074.94;;;13.50;57.37
62510;BME280;48558;48.242;11.654;2023-04-07T10:11:59;96059.88;;;13.82;56.67
62510;BME280;48558;48.242;11.654;2023-04-07T10:16:12;96066.16;;;14.60;55.82
62510;BME280;48558;48.242;11.654;2023-04-07T10:20:25;96077.78;;;13.55;55.72
62510;BME280;48558;48.242;11.654;2023-04-07T10:24:57;96070.75;;;12.30;64.31
62510;BME280;48558;48.242;11.654;2023-04-07T10:29:12;96050.63;;;12.50;60.52
62510;BME280;48558;48.242;11.654;2023-04-07T10:33:44;96076.59;;;13.88;66.74
62510;BME280;48558;48.242;11.654;2023-04-07T10:55:41;96068.22;;;14.08;56.98
62510;BME280;48558;48.242;11.654;2023-04-07T11:04:23;96066.59;;;16.35;51.98
62510;BME280;48558;48.242;11.654;2023-04-07T11:08:46;96064.56;;;16.41;52.49
62510;BME280;48558;48.242;11.654;2023-04-07T11:13:05;96055.69;;;16.81;48.38
62510;BME280;48558;48.242;11.654;2023-04-07T11:17:19;96055.44;;;16.46;46.89
62510;BME280;48558;48.242;11.654;2023-04-07T11:21:32;96057.28;;;17.51;44.12
62510;BME280;48558;48.242;11.654;2023-04-07T11:25:46;96048.84;;;16.27;45.12
62510;BME280;48558;48.242;11.654;2023-04-07T11:30:00;96043.38;;;15.51;47.33
62510;BME280;48558;48.242;11.654;2023-04-07T11:34:12;96042.41;;;14.02;54.78
62510;BME280;48558;48.242;11.654;2023-04-07T11:38:34;96048.97;;;15.57;55.91
62510;BME280;48558;48.242;11.654;2023-04-07T11:42:48;96043.19;;;14.65;54.60
62510;BME280;48558;48.242;11.654;2023-04-07T11:47:02;96044.09;;;13.68;59.34
62510;BME280;48558;48.242;11.654;2023-04-07T11:51:23;96033.25;;;13.96;62.21
62510;BME280;48558;48.242;11.654;2023-04-07T11:55:35;96037.03;;;14.97;59.72
62510;BME280;48558;48.242;11.654;2023-04-07T11:59:48;96039.22;;;15.36;58.10
62510;BME280;48558;48.242;11.654;2023-04-07T12:04:02;96032.44;;;14.83;54.91
62510;BME280;48558;48.242;11.654;2023-04-07T12:08:16;96038.38;;;15.77;51.86
62510;BME280;48558;48.242;11.654;2023-04-07T12:12:29;96030.03;;;15.89;52.27
62510;BME280;48558;48.242;11.654;2023-04-07T12:16:44;96025.53;;;16.58;53.68
62510;BME280;48558;48.242;11.654;2023-04-07T12:20:56;96028.09;;;14.14;53.83
62510;BME280;48558;48.242;11.654;2023-04-07T12:25:10;96033.47;;;13.92;55.98
62510;BME280;48558;48.242;11.654;2023-04-07T12:29:22;96027.44;;;14.56;52.35
62510;BME280;48558;48.242;11.654;2023-04-07T12:33:35;96038.75;;;13.90;55.13
62510;BME280;48558;48.242;11.654;2023-04-07T12:37:47;96032.63;;;13.15;57.24
62510;BME280;48558;48.242;11.654;2023-04-07T12:42:00;96039.25;;;12.82;59.48
62510;BME280;48558;48.242;11.654;2023-04-07T12:46:13;96034.13;;;12.75;59.69
62510;BME280;48558;48.242;11.654;2023-04-07T12:50:25;96032.09;;;12.96;62.13
62510;BME280;48558;48.242;11.654;2023-04-07T12:54:38;96038.88;;;13.10;61.05
62510;BME280;48558;48.242;11.654;2023-04-07T12:58:51;96024.66;;;14.25;56.42
62510;BME280;48558;48.242;11.654;2023-04-07T13:03:04;96020.34;;;13.67;55.34
62510;BME280;48558;48.242;11.654;2023-04-07T13:07:17;96033.53;;;12.71;58.07
62510;BME280;48558;48.242;11.654;2023-04-07T13:11:29;96031.94;;;13.20;59.57
62510;BME280;48558;48.242;11.654;2023-04-07T13:15:52;96023.78;;;13.56;55.73
62510;BME280;48558;48.242;11.654;2023-04-07T13:20:05;96036.63;;;13.54;55.66
62510;BME280;48558;48.242;11.654;2023-04-07T13:24:18;96028.72;;;12.66;61.77
62510;BME280;48558;48.242;11.654;2023-04-07T13:28:32;96019.28;;;12.98;61.36
62510;BME280;48558;48.242;11.654;2023-04-07T13:32:45;96032.63;;;13.15;58.87
62510;BME280;48558;48.242;11.654;2023-04-07T13:37:01;96030.50;;;12.69;65.83
62510;BME280;48558;48.242;11.654;2023-04-07T13:41:14;96020.97;;;12.90;59.96
62510;BME280;48558;48.242;11.654;2023-04-07T13:45:27;96010.47;;;13.66;58.76
62510;BME280;48558;48.242;11.654;2023-04-07T13:49:49;96015.28;;;13.00;62.14
62510;BME280;48558;48.242;11.654;2023-04-07T13:54:03;96012.41;;;13.34;60.86
62510;BME280;48558;48.242;11.654;2023-04-07T13:58:15;96011.81;;;13.45;57.93
62510;BME280;48558;48.242;11.654;2023-04-07T14:02:28;96015.03;;;13.43;59.69
62510;BME280;48558;48.242;11.654;2023-04-07T14:06:41;95998.91;;;13.02;61.36
62510;BME280;48558;48.242;11.654;2023-04-07T14:10:54;96002.81;;;13.81;57.46
62510;BME280;48558;48.242;11.654;2023-04-07T14:15:07;96020.16;;;13.50;59.27
62510;BME280;48558;48.242;11.654;2023-04-07T14:19:20;96022.16;;;12.49;62.17
62510;BME280;48558;48.242;11.654;2023-04-07T14:23:36;96010.47;;;12.25;62.70
62510;BME280;48558;48.242;11.654;2023-04-07T14:27:53;96004.41;;;12.41;62.33
62510;BME280;48558;48.242;11.654;2023-04-07T14:32:06;96004.28;;;12.50;61.42
62510;BME280;48558;48.242;11.654;2023-04-07T14:36:18;96010.56;;;12.51;63.16
62510;BME280;48558;48.242;11.654;2023-04-07T14:40:31;96010.63;;;12.71;61.75
62510;BME280;48558;48.242;11.654;2023-04-07T14:44:43;96016.50;;;11.94;65.23
62510;BME280;48558;48.242;11.654;2023-04-07T14:48:56;96011.06;;;12.00;67.92
62510;BME280;48558;48.242;11.654;2023-04-07T14:53:09;96017.44;;;12.06;68.74
62510;BME280;48558;48.242;11.654;2023-04-07T14:57:22;96019.94;;;12.04;69.94
62510;BME280;48558;48.242;11.654;2023-04-07T15:01:34;96032.84;;;12.56;67.52
62510;BME280;48558;48.242;11.654;2023-04-07T15:05:47;96016.41;;;12.53;66.99
62510;BME280;48558;48.242;11.654;2023-04-07T15:09:59;96010.94;;;12.58;68.63
62510;BME280;48558;48.242;11.654;2023-04-07T15:14:16;96026.94;;;12.69;66.73
62510;BME280;48558;48.242;11.654;2023-04-07T15:18:43;96024.69;;;12.18;69.63
62510;BME280;48558;48.242;11.654;2023-04-07T15:22:56;96027.47;;;12.18;70.48
62510;BME280;48558;48.242;11.654;2023-04-07T15:27:12;96026.84;;;11.94;71.83
62510;BME280;48558;48.242;11.654;2023-04-07T15:31:24;96035.84;;;11.50;73.49
62510;BME280;48558;48.242;11.654;2023-04-07T15:35:40;96038.75;;;11.71;76.92
62510;BME280;48558;48.242;11.654;2023-04-07T15:39:53;96022.88;;;11.57;75.49
62510;BME280;48558;48.242;11.654;2023-04-07T15:44:06;96027.47;;;11.60;74.94
62510;BME280;48558;48.242;11.654;2023-04-07T15:48:18;96027.38;;;11.83;75.49
62510;BME280;48558;48.242;11.654;2023-04-07T15:52:31;96037.69;;;11.68;77.02
62510;BME280;48558;48.242;11.654;2023-04-07T15:56:43;96043.56;;;11.08;80.31
62510;BME280;48558;48.242;11.654;2023-04-07T16:00:56;96041.03;;;11.72;77.01
62510;BME280;48558;48.242;11.654;2023-04-07T16:05:09;96041.81;;;11.34;81.28
62510;BME280;48558;48.242;11.654;2023-04-07T16:09:22;96047.09;;;11.47;80.42
62510;BME280;48558;48.242;11.654;2023-04-07T16:13:35;96044.59;;;11.49;81.87
62510;BME280;48558;48.242;11.654;2023-04-07T16:17:48;96051.22;;;11.66;83.24
62510;BME280;48558;48.242;11.654;2023-04-07T16:22:00;96050.38;;;11.60;83.11
62510;BME280;48558;48.242;11.654;2023-04-07T16:26:13;96043.38;;;11.50;82.73
62510;BME280;48558;48.242;11.654;2023-04-07T16:30:25;96054.16;;;11.48;83.86
62510;BME280;48558;48.242;11.654;2023-04-07T16:34:37;96066.88;;;11.31;81.73
62510;BME280;48558;48.242;11.654;2023-04-07T16:38:50;96059.47;;;10.99;83.91
62510;BME280;48558;48.242;11.654;2023-04-07T16:43:03;96056.19;;;10.76;84.40
62510;BME280;48558;48.242;11.654;2023-04-07T16:47:15;96065.91;;;10.72;91.64
62510;BME280;48558;48.242;11.654;2023-04-07T16:51:28;96069.41;;;10.49;88.32
62510;BME280;48558;48.242;11.654;2023-04-07T16:55:41;96074.97;;;10.40;90.38
62510;BME280;48558;48.242;11.654;2023-04-07T16:59:54;96073.41;;;10.15;90.97
62510;BME280;48558;48.242;11.654;2023-04-07T17:04:06;96091.94;;;10.15;92.88
62510;BME280;48558;48.242;11.654;2023-04-07T17:08:19;96085.94;;;10.07;91.68
62510;BME280;48558;48.242;11.654;2023-04-07T17:12:32;96085.84;;;9.92;97.13
62510;BME280;48558;48.242;11.654;2023-04-07T17:16:52;96081.44;;;9.77;96.41
62510;BME280;48558;48.242;11.654;2023-04-07T17:21:04;96089.25;;;9.69;98.32
62510;BME280;48558;48.242;11.654;2023-04-07T17:25:17;96095.25;;;9.59;100.00
62510;BME280;48558;48.242;11.654;2023-04-07T17:29:29;96098.91;;;9.65;99.53
62510;BME280;48558;48.242;11.654;2023-04-07T17:33:42;96107.81;;;9.51;100.00
62510;BME280;48558;48.242;11.654;2023-04-07T17:37:54;96099.22;;;9.21;100.00
62510;BME280;48558;48.242;11.654;2023-04-07T17:42:13;96117.44;;;9.37;100.00
62510;BME280;48558;48.242;11.654;2023-04-07T17:46:26;96111.44;;;9.11;100.00
62510;BME280;48558;48.242;11.654;2023-04-07T17:50:39;96120.78;;;9.05;100.00
62510;BME280;48558;48.242;11.654;2023-04-07T17:54:54;96119.22;;;8.86;100.00
62510;BME280;48558;48.242;11.654;2023-04-07T17:59:06;96133.59;;;8.81;100.00
62510;BME280;48558;48.242;11.654;2023-04-07T18:03:19;96135.81;;;8.64;100.00
62510;BME280;48558;48.242;11.654;2023-04-07T18:07:32;96148.16;;;8.50;100.00
62510;BME280;48558;48.242;11.654;2023-04-07T18:11:49;96140.59;;;8.33;100.00
62510;BME280;48558;48.242;11.654;2023-04-07T18:16:02;96142.50;;;8.23;100.00
62510;BME280;48558;48.242;11.654;2023-04-07T18:20:19;96157.31;;;8.17;100.00
62510;BME280;48558;48.242;11.654;2023-04-07T18:24:32;96164.81;;;8.16;100.00
62510;BME280;48558;48.242;11.654;2023-04-07T18:28:44;96158.06;;;8.17;100.00
62510;BME280;48558;48.242;11.654;2023-04-07T18:32:57;96169.41;;;8.19;100.00
62510;BME280;48558;48.242;11.654;2023-04-07T18:37:10;96171.84;;;8.17;100.00
62510;BME280;48558;48.242;11.654;2023-04-07T18:41:23;96169.03;;;8.08;100.00
62510;BME280;48558;48.242;11.654;2023-04-07T18:45:35;96179.88;;;8.03;100.00
62510;BME280;48558;48.242;11.654;2023-04-07T18:49:48;96184.72;;;7.98;100.00
62510;BME280;48558;48.242;11.654;2023-04-07T18:54:01;96190.97;;;7.99;100.00
62510;BME280;48558;48.242;11.654;2023-04-07T18:58:14;96179.91;;;7.90;100.00
62510;BME280;48558;48.242;11.654;2023-04-07T19:02:27;96191.50;;;8.07;100.00
62510;BME280;48558;48.242;11.654;2023-04-07T19:06:39;96201.53;;;8.22;100.00
62510;BME280;48558;48.242;11.654;2023-04-07T19:10:52;96200.84;;;8.09;100.00
62510;BME280;48558;48.242;11.654;2023-04-07T19:15:08;96203.09;;;8.02;100.00
62510;BME280;48558;48.242;11.654;2023-04-07T19:19:31;96200.66;;;8.04;100.00
62510;BME280;48558;48.242;11.654;2023-04-07T19:23:45;96210.69;;;7.97;100.00
62510;BME280;48558;48.242;11.654;2023-04-07T19:27:58;96215.13;;;7.95;100.00
62510;BME280;48558;48.242;11.654;2023-04-07T19:32:11;96202.69;;;7.90;100.00
62510;BME280;48558;48.242;11.654;2023-04-07T19:36:24;96214.78;;;7.93;100.00
62510;BME280;48558;48.242;11.654;2023-04-07T19:40:37;96221.50;;;7.92;100.00
62510;BME280;48558;48.242;11.654;2023-04-07T19:44:50;96231.53;;;7.86;100.00
62510;BME280;48558;48.242;11.654;2023-04-07T19:49:05;96233.66;;;7.82;100.00
62510;BME280;48558;48.242;11.654;2023-04-07T19:53:17;96235.56;;;7.72;100.00
62510;BME280;48558;48.242;11.654;2023-04-07T19:57:33;96240.19;;;7.75;100.00
62510;BME280;48558;48.242;11.654;2023-04-07T20:01:46;96232.59;;;7.67;100.00
62510;BME280;48558;48.242;11.654;2023-04-07T20:05:58;96232.50;;;7.58;100.00
62510;BME280;48558;48.242;11.654;2023-04-07T20:10:21;96237.03;;;7.52;100.00
62510;BME280;48558;48.242;11.654;2023-04-07T20:14:33;96236.28;;;7.51;100.00
62510;BME280;48558;48.242;11.654;2023-04-07T20:18:46;96235.22;;;7.36;100.00
62510;BME280;48558;48.242;11.654;2023-04-07T20:22:59;96252.25;;;7.31;100.00
62510;BME280;48558;48.242;11.654;2023-04-07T20:27:11;96248.88;;;7.27;100.00
62510;BME280;48558;48.242;11.654;2023-04-07T20:31:24;96245.03;;;7.24;100.00
62510;BME280;48558;48.242;11.654;2023-04-07T20:35:37;96236.13;;;7.20;100.00
62510;BME280;48558;48.242;11.654;2023-04-07T20:39:49;96241.50;;;7.24;100.00
62510;BME280;48558;48.242;11.654;2023-04-07T20:44:02;96250.09;;;7.13;100.00
62510;BME280;48558;48.242;11.654;2023-04-07T20:48:15;96239.22;;;6.97;100.00
62510;BME280;48558;48.242;11.654;2023-04-07T20:52:29;96241.44;;;6.77;100.00
62510;BME280;48558;48.242;11.654;2023-04-07T20:56:42;96255.00;;;6.43;100.00
62510;BME280;48558;48.242;11.654;2023-04-07T21:00:57;96254.28;;;6.14;100.00
62510;BME280;48558;48.242;11.654;2023-04-07T21:05:10;96264.31;;;5.92;100.00
62510;BME280;48558;48.242;11.654;2023-04-07T21:09:23;96267.56;;;5.87;100.00
62510;BME280;48558;48.242;11.654;2023-04-07T21:13:35;96277.69;;;5.73;100.00
62510;BME280;48558;48.242;11.654;2023-04-07T21:17:48;96263.50;;;5.46;100.00
62510;BME280;48558;48.242;11.654;2023-04-07T21:22:01;96266.31;;;5.59;100.00
62510;BME280;48558;48.242;11.654;2023-04-07T21:26:13;96260.81;;;5.59;100.00
62510;BME280;48558;48.242;11.654;2023-04-07T21:30:26;96266.25;;;5.30;100.00
62510;BME280;48558;48.242;11.654;2023-04-07T21:34:39;96259.81;;;5.04;100.00
62510;BME280;48558;48.242;11.654;2023-04-07T21:38:51;96270.03;;;5.04;100.00
62510;BME280;48558;48.242;11.654;2023-04-07T21:43:04;96262.31;;;4.83;100.00
62510;BME280;48558;48.242;11.654;2023-04-07T21:47:16;96262.78;;;4.62;100.00
62510;BME280;48558;48.242;11.654;2023-04-07T21:51:29;96263.81;;;4.68;100.00
62510;BME280;48558;48.242;11.654;2023-04-07T21:55:42;96269.78;;;4.63;100.00
62510;BME280;48558;48.242;11.654;2023-04-07T21:59:54;96268.09;;;4.33;100.00
62510;BME280;48558;48.242;11.654;2023-04-07T22:04:08;96270.56;;;4.08;100.00
62510;BME280;48558;48.242;11.654;2023-04-07T22:08:20;96257.50;;;3.76;100.00
62510;BME280;48558;48.242;11.654;2023-04-07T22:12:33;96259.66;;;3.65;100.00
62510;BME280;48558;48.242;11.654;2023-04-07T22:16:45;96272.66;;;3.57;100.00
62510;BME280;48558;48.242;11.654;2023-04-07T22:20:58;96269.84;;;3.41;100.00
62510;BME280;48558;48.242;11.654;2023-04-07T22:25:10;96281.66;;;3.35;100.00
62510;BME280;48558;48.242;11.654;2023-04-07T22:29:23;96272.03;;;3.27;100.00
62510;BME280;48558;48.242;11.654;2023-04-07T22:33:35;96288.75;;;3.32;100.00
62510;BME280;48558;48.242;11.654;2023-04-07T22:37:48;96277.50;;;3.27;100.00